Etusivu
METAR-TAF:

METAR-TAF

Lentoasemat :

Funafutin kansainvälinen lentoasema

Funafuti, Tuvalu

Leveyspiiri: 08-31S, Pituuspiiri: 179-13E, korkeus merenpinnasta: 1 m

Tämänhetkinen sää

Tämä raportti tehtiin 9 tuntia ja 42 minuuttia sitten, kello 10.00 UTC
Tuuli 8 kn idästä/kaakosta
Lämpötila 29°C
Kosteus 84%
Ilmanpaine 1010 hPa
Näkyvyys 10 km tai enemmän
Hajanaisia pilviä 2000 ft:n korkeudessa

METAR: NGFU 221000Z 11008KT 9999 SCT020 29/26 Q1010

Aika: 07:42 (19:42 UTC)

Sääennuste

Tämä raportti tehtiin 2 tuntia ja 25 minuuttia sitten, kello 17.17 UTC
Ennuste voimassa 22. päivästä klo 18 UTC - 23. päivään klo 18 UTC
Tuuli 8 kn idästä/kaakosta
Näkyvyys 10 km tai enemmän
Hajanaisia pilviä 2000 ft:n korkeudessa

TAF: NGFU 221717Z 2218/2318 12008KT 9999 SCT020

Säähavainnot ja -ennusteet yli 4000 lentoasemalta (METAR- ja TAF-raportit).

Käytössä olevat sääasemat on merkitty karttaan keltaisilla ja punaisilla pisteillä.

Aseta hiiri pisteen päälle nähdäksesi sääaseman nimen.

Klikkaa sitten nähdäksesi säähavainnot ja -ennusteet.

Kartan vaihtaminen: klikkaa mustalla rastilla varustettuja vihreitä pisteitä, niin voit zoomata sisään; viivalla varustettua vihreää pistettä, niin voit zoomata ulos tai vihreitä nuolia, niin pääset viereisille kartoille.


METAR-TAF: